Time;durP1;ratioP1;P1;durP2;ratioP2;P2;SDS_P1;SDS_P2;PMS_P1;PMS_P2;Temp;Humidity;BMP_temperature;BMP_pressure;BME280_temperature;BME280_humidity;BME280_pressure;Samples;Min_cycle;Max_cycle;Signal;HPM_P1;HPM_P2
2021/11/17 02:27:05;;;;;;;;;16.50;15.50;;;;;22.11;41.85;102028.66;4973463;28;45244;-67
2021/11/17 02:29:43;;;;;;;;;20.75;17.75;;;;;22.10;41.36;102029.63;4971386;28;45319;-67
2021/11/17 02:32:26;;;;;;;;;16.50;16.50;;;;;22.10;41.34;102029.63;4969498;28;46738;-66
2021/11/17 02:34:58;;;;;;;;;20.00;17.00;;;;;22.10;41.96;102034.94;4970965;28;45377;-67
2021/11/17 02:37:52;;;;;;;;;20.75;17.50;;;;;22.10;41.77;102036.75;4970994;28;45557;-67
2021/11/17 02:40:43;;;;;;;;;19.25;16.50;;;;;22.09;41.71;102035.94;4970287;28;45367;-67
2021/11/17 02:43:15;;;;;;;;;17.75;14.75;;;;;22.10;41.39;102042.06;4970222;28;47428;-67
2021/11/17 02:45:49;;;;;;;;;15.50;14.75;;;;;22.09;41.71;102043.06;4970973;28;45478;-66
2021/11/17 02:48:45;;;;;;;;;16.00;16.00;;;;;22.09;41.63;102041.25;4971659;28;45383;-66
2021/11/17 02:51:17;;;;;;;;;13.00;11.50;;;;;22.11;41.29;102046.38;4970809;28;45547;-67
2021/11/17 02:54:07;;;;;;;;;19.00;17.50;;;;;22.07;41.40;102040.53;4972985;28;46227;-66
2021/11/17 02:56:53;;;;;;;;;19.50;17.25;;;;;22.11;41.34;102052.53;4968504;28;45538;-67
2021/11/17 02:59:46;;;;;;;;;14.25;14.25;;;;;22.10;41.73;102042.88;4966331;28;45571;-66
2021/11/17 03:02:20;;;;;;;;;14.75;14.00;;;;;22.12;41.24;102050.72;4969594;28;45524;-66
2021/11/17 03:04:54;;;;;;;;;16.00;16.00;;;;;22.11;41.54;102055.16;4969327;28;47289;-67
2021/11/17 03:07:20;;;;;;;;;15.25;13.25;;;;;22.11;41.32;102055.16;4967944;28;45418;-66
2021/11/17 03:10:13;;;;;;;;;17.50;15.75;;;;;22.12;41.31;102048.06;4972525;28;45374;-66
2021/11/17 03:13:06;;;;;;;;;17.75;15.00;;;;;22.11;41.65;102047.22;4958189;28;45675;-67
2021/11/17 03:15:47;;;;;;;;;18.00;17.00;;;;;22.11;41.31;102044.56;4957030;28;46041;-67
2021/11/17 03:18:19;;;;;;;;;15.25;14.25;;;;;22.11;41.55;102049.03;4972207;28;45331;-67
2021/11/17 03:20:58;;;;;;;;;19.75;15.50;;;;;22.10;41.05;102047.34;4960256;28;45493;-67
2021/11/17 03:23:44;;;;;;;;;16.75;14.25;;;;;22.11;41.65;102047.22;4966901;28;45423;-66
2021/11/17 03:26:28;;;;;;;;;16.50;16.50;;;;;22.06;41.76;102028.28;4969010;28;45511;-67
2021/11/17 03:29:22;;;;;;;;;19.00;16.75;;;;;22.11;41.39;102043.72;4968744;28;45341;-66
2021/11/17 03:32:11;;;;;;;;;18.50;17.25;;;;;22.10;41.71;102032.28;4937727;28;45369;-67
2021/11/17 03:34:42;;;;;;;;;19.25;19.00;;;;;22.10;41.54;102027.00;4938013;28;45429;-66
2021/11/17 03:37:45;;;;;;;;;17.50;16.50;;;;;22.10;41.65;102021.69;4953792;28;46462;-67
2021/11/17 03:40:40;;;;;;;;;20.25;17.25;;;;;22.08;41.71;102013.06;4931040;28;45364;-67
2021/11/17 03:43:05;;;;;;;;;17.75;17.25;;;;;22.11;40.99;102028.66;4930641;28;45437;-67
2021/11/17 03:46:10;;;;;;;;;15.75;14.25;;;;;22.09;41.05;102035.09;4932414;28;45610;-67
2021/11/17 03:48:50;;;;;;;;;18.50;16.75;;;;;22.10;41.20;102048.19;4930906;28;46612;-66
2021/11/17 03:51:21;;;;;;;;;21.00;17.25;;;;;22.09;41.39;102038.59;4932891;28;45385;-67
2021/11/17 03:53:53;;;;;;;;;15.75;14.25;;;;;22.09;41.52;102041.25;4934277;28;45497;-67
2021/11/17 03:56:52;;;;;;;;;17.50;17.00;;;;;22.09;41.57;102043.88;4930579;28;45653;-67
2021/11/17 03:59:27;;;;;;;;;15.00;14.25;;;;;22.09;41.09;102041.25;4930613;28;46178;-67
2021/11/17 04:02:16;;;;;;;;;18.50;15.50;;;;;22.06;41.03;102022.97;4929825;28;45471;-67
2021/11/17 04:05:16;;;;;;;;;13.25;13.25;;;;;22.09;41.65;102032.44;4930781;28;45627;-67
2021/11/17 04:07:50;;;;;;;;;15.00;13.50;;;;;22.10;41.49;102036.75;4931168;28;45410;-66
2021/11/17 04:11:00;;;;;;;;;15.50;14.75;;;;;22.10;41.05;102036.75;4962547;28;47674;-67
2021/11/17 04:13:34;;;;;;;;;15.75;15.00;;;;;22.10;41.11;102031.44;4994334;28;45419;-66
2021/11/17 04:16:37;;;;;;;;;17.00;16.75;;;;;22.06;41.46;102028.28;4994710;28;45619;-66
2021/11/17 04:19:31;;;;;;;;;15.75;15.75;;;;;22.07;41.48;102038.72;4936214;28;45518;-66
2021/11/17 04:22:02;;;;;;;;;15.00;14.25;;;;;22.10;41.10;102034.09;4923953;28;45437;-67
2021/11/17 04:24:41;;;;;;;;;16.50;14.75;;;;;22.09;41.13;102029.81;4935964;28;45428;-66
2021/11/17 04:27:33;;;;;;;;;16.00;15.75;;;;;22.08;41.06;102023.66;4920702;28;45511;-67
2021/11/17 04:30:07;;;;;;;;;18.25;15.50;;;;;22.11;41.46;102030.47;4941133;28;45391;-66
2021/11/17 04:33:00;;;;;;;;;15.25;12.50;;;;;22.11;41.26;102030.47;4956407;28;45579;-66
2021/11/17 04:35:31;;;;;;;;;14.75;14.75;;;;;22.09;41.26;102032.44;4954060;28;45403;-67
2021/11/17 04:38:23;;;;;;;;;15.00;12.25;;;;;22.10;41.13;102040.25;4954907;28;45609;-67
2021/11/17 04:41:13;;;;;;;;;16.00;14.50;;;;;22.10;41.33;102044.69;4950804;28;45612;-67
2021/11/17 04:43:50;;;;;;;;;15.75;15.00;;;;;22.11;41.05;102038.44;4954898;28;45818;-67
2021/11/17 04:46:44;;;;;;;;;13.50;13.50;;;;;22.10;41.06;102050.00;4954971;28;45657;-67
2021/11/17 04:49:34;;;;;;;;;17.75;15.00;;;;;22.11;41.01;102052.53;4946295;28;45514;-67
2021/11/17 04:52:11;;;;;;;;;17.50;16.25;;;;;22.10;41.36;102055.31;4904878;28;45512;-67
2021/11/17 04:55:12;;;;;;;;;14.75;13.75;;;;;22.10;41.20;102050.00;4953266;28;46284;-67
2021/11/17 04:57:50;;;;;;;;;17.50;14.25;;;;;22.09;41.38;102033.28;4954841;28;45548;-66
2021/11/17 05:00:41;;;;;;;;;14.25;13.50;;;;;22.07;41.58;102028.13;4968790;28;45393;-67
2021/11/17 05:03:15;;;;;;;;;16.75;15.00;;;;;22.09;40.92;102033.28;4968296;28;45304;-67
2021/11/17 05:06:01;;;;;;;;;13.50;13.50;;;;;22.06;40.86;102034.44;4969633;28;46022;-66
2021/11/17 05:08:50;;;;;;;;;15.50;14.25;;;;;22.07;40.97;102037.88;4967482;28;45446;-66
2021/11/17 05:11:30;;;;;;;;;15.00;15.00;;;;;22.06;41.50;102033.59;4960274;28;45512;-67
2021/11/17 05:14:14;;;;;;;;;15.25;15.00;;;;;22.07;41.04;102027.28;4966724;28;45424;-67
2021/11/17 05:16:57;;;;;;;;;12.50;12.25;;;;;22.07;41.14;102027.28;4971640;28;46433;-66
2021/11/17 05:19:55;;;;;;;;;12.75;12.50;;;;;22.07;40.98;102035.22;4971949;28;45491;-67
2021/11/17 05:22:37;;;;;;;;;13.50;11.25;;;;;22.06;41.34;102025.63;4948979;28;45301;-66
2021/11/17 05:25:29;;;;;;;;;18.00;13.25;;;;;22.07;41.12;102035.22;4950963;28;45496;-67
2021/11/17 05:28:00;;;;;;;;;17.75;15.25;;;;;22.06;41.46;102028.28;4933262;28;45544;-67
2021/11/17 05:30:47;;;;;;;;;14.75;13.00;;;;;22.07;40.98;102037.88;4950930;28;45491;-66
2021/11/17 05:33:36;;;;;;;;;12.25;11.25;;;;;22.07;41.13;102044.03;4949178;28;45397;-67
2021/11/17 05:36:26;;;;;;;;;14.50;14.50;;;;;22.05;41.21;102038.06;4948288;28;45324;-67
2021/11/17 05:38:53;;;;;;;;;15.50;14.50;;;;;22.05;40.97;102037.22;4951768;28;46342;-67
2021/11/17 05:41:40;;;;;;;;;15.50;12.00;;;;;22.06;41.26;102041.53;4950424;28;45428;-67
2021/11/17 05:44:05;;;;;;;;;13.25;11.50;;;;;22.06;41.64;102044.19;4950370;28;45465;-67
2021/11/17 05:46:55;;;;;;;;;15.75;12.25;;;;;22.05;40.96;102030.09;4935164;28;45551;-67
2021/11/17 05:49:57;;;;;;;;;14.50;12.75;;;;;22.07;41.45;102041.38;4950420;28;45522;-66
2021/11/17 05:52:43;;;;;;;;;14.75;13.75;;;;;22.07;40.98;102036.06;4949944;28;45488;-67
2021/11/17 05:55:21;;;;;;;;;12.00;10.75;;;;;22.09;41.16;102040.41;4950326;28;45648;-67
2021/11/17 05:58:05;;;;;;;;;12.25;11.50;;;;;22.10;41.23;102047.34;4950506;28;45436;-67
2021/11/17 06:00:49;;;;;;;;;18.00;11.50;;;;;22.10;41.18;102045.53;4971398;28;46234;-67
2021/11/17 06:03:30;;;;;;;;;15.75;12.00;;;;;22.10;41.28;102050.84;4969970;28;45351;-67
2021/11/17 06:05:55;;;;;;;;;15.75;12.50;;;;;22.10;40.92;102050.00;4972930;28;45568;-66
2021/11/17 06:08:20;;;;;;;;;13.75;13.00;;;;;22.10;41.17;102050.00;4970424;28;60119;-66
2021/11/17 06:10:49;;;;;;;;;13.25;11.50;;;;;22.10;41.43;102050.00;4971141;28;45354;-67
2021/11/17 06:13:15;;;;;;;;;13.50;13.00;;;;;22.10;41.13;102052.66;4969835;28;45519;-66
2021/11/17 06:15:43;;;;;;;;;14.00;13.50;;;;;22.07;40.88;102061.75;4971433;28;45702;-67
2021/11/17 06:18:12;;;;;;;;;13.50;13.50;;;;;22.06;40.87;102054.78;4972724;28;45484;-66
2021/11/17 06:20:39;;;;;;;;;14.25;13.25;;;;;22.07;41.06;102065.22;4971451;28;46436;-66
2021/11/17 06:23:19;;;;;;;;;13.75;13.25;;;;;22.09;41.23;102065.09;4969726;28;45486;-67
2021/11/17 06:25:46;;;;;;;;;14.75;12.25;;;;;22.09;40.90;102066.91;4970555;28;45497;-67
2021/11/17 06:28:19;;;;;;;;;15.00;13.50;;;;;22.10;40.85;102073.84;4971108;28;45444;-66
2021/11/17 06:30:45;;;;;;;;;13.75;12.50;;;;;22.10;40.90;102072.03;4971055;28;45493;-67
2021/11/17 06:33:11;;;;;;;;;10.00;10.00;;;;;22.04;40.71;102070.81;4972402;28;45317;-67
2021/11/17 06:35:39;;;;;;;;;13.75;12.00;;;;;22.09;41.34;102077.50;4971611;28;45322;-66
2021/11/17 06:38:05;;;;;;;;;11.75;11.75;;;;;22.06;40.82;102079.47;4970975;28;45237;-67
2021/11/17 06:40:32;;;;;;;;;11.25;10.25;;;;;22.05;40.96;102080.44;4970800;28;48097;-67
2021/11/17 06:42:59;;;;;;;;;16.00;13.00;;;;;22.10;41.17;102090.59;4970939;28;45559;-66
2021/11/17 06:45:40;;;;;;;;;13.75;13.00;;;;;22.09;40.98;102091.59;4971188;28;45370;-66
2021/11/17 06:48:08;;;;;;;;;14.50;14.00;;;;;22.10;40.98;102097.72;4968963;28;45552;-66
2021/11/17 06:50:36;;;;;;;;;14.50;13.50;;;;;22.02;40.78;102088.69;4970926;28;46861;-67
2021/11/17 06:53:01;;;;;;;;;11.75;11.75;;;;;22.06;40.99;102105.97;4969096;28;45626;-67
2021/11/17 06:55:26;;;;;;;;;12.00;9.75;;;;;22.03;40.90;102100.97;4969208;28;45704;-67
2021/11/17 06:57:52;;;;;;;;;14.50;12.75;;;;;22.03;41.47;102100.97;4970955;28;45466;-67
2021/11/17 07:00:24;;;;;;;;;15.00;12.25;;;;;22.05;41.18;102111.41;4971652;28;46156;-67
2021/11/17 07:02:49;;;;;;;;;12.50;12.50;;;;;22.07;41.02;102120.88;4971026;28;45377;-67
2021/11/17 07:05:16;;;;;;;;;13.50;12.50;;;;;22.05;41.43;102120.22;4969914;28;45540;-67
2021/11/17 07:07:42;;;;;;;;;15.75;15.00;;;;;22.07;40.71;102123.53;4970654;28;45552;-67
2021/11/17 07:10:10;;;;;;;;;9.75;9.75;;;;;22.07;41.22;102131.50;4970313;28;46868;-67
2021/11/17 07:12:35;;;;;;;;;11.75;11.25;;;;;22.06;41.17;102137.78;4970526;28;45439;-67
2021/11/17 07:15:02;;;;;;;;;10.75;10.75;;;;;22.06;41.13;102140.44;4972677;28;45237;-67
2021/11/17 07:17:27;;;;;;;;;16.00;13.25;;;;;22.04;40.99;102150.34;4970380;28;45405;-67
2021/11/17 07:19:53;;;;;;;;;9.50;9.50;;;;;22.06;41.35;102142.25;4969428;28;46424;-67
2021/11/17 07:22:18;;;;;;;;;11.00;9.25;;;;;22.00;40.77;102135.72;4970231;28;46372;-67
2021/11/17 07:24:44;;;;;;;;;10.50;10.50;;;;;22.07;40.84;102144.75;4970625;28;45400;-67
2021/11/17 07:27:18;;;;;;;;;15.00;11.75;;;;;22.07;41.04;102147.38;4971792;28;45521;-67
2021/11/17 07:29:45;;;;;;;;;12.75;12.25;;;;;22.08;41.00;102150.88;4972154;28;46301;-67
2021/11/17 07:32:10;;;;;;;;;14.75;12.00;;;;;22.06;41.06;102156.34;4968232;28;45448;-68
2021/11/17 07:34:35;;;;;;;;;12.50;11.25;;;;;22.06;40.96;102156.34;4969775;28;45362;-66
2021/11/17 07:37:01;;;;;;;;;14.25;13.00;;;;;22.09;41.02;102163.16;4970075;27;45462;-67
2021/11/17 07:39:26;;;;;;;;;13.25;11.00;;;;;22.06;41.23;102169.59;4966088;28;45466;-66
2021/11/17 07:41:53;;;;;;;;;10.00;9.75;;;;;22.10;40.94;102167.47;4973908;28;45265;-66
2021/11/17 07:44:21;;;;;;;;;11.75;10.00;;;;;22.10;40.96;102183.38;4973402;28;45403;-66
2021/11/17 07:46:47;;;;;;;;;10.25;10.25;;;;;22.09;41.09;102181.72;4972794;28;45295;-66
2021/11/17 07:49:14;;;;;;;;;9.75;9.00;;;;;22.10;41.49;102183.38;4971146;28;45683;-66
2021/11/17 07:51:40;;;;;;;;;12.00;9.00;;;;;22.07;41.66;102184.50;4972081;28;45479;-66
2021/11/17 07:54:05;;;;;;;;;11.75;10.50;;;;;22.09;41.59;102181.72;4974574;28;45531;-66
2021/11/17 07:56:33;;;;;;;;;9.25;9.25;;;;;22.10;41.71;102187.81;4972665;28;45454;-66
2021/11/17 07:58:59;;;;;;;;;10.00;10.00;;;;;22.07;41.09;102171.25;4972664;28;46162;-67
2021/11/17 08:01:24;;;;;;;;;10.25;8.75;;;;;22.03;41.23;102169.88;4970121;28;45375;-67
2021/11/17 08:03:50;;;;;;;;;7.00;6.50;;;;;22.09;41.68;102180.88;4970654;28;45459;-67
2021/11/17 08:06:20;;;;;;;;;11.00;10.00;;;;;22.03;41.76;102183.13;4964432;28;45548;-67
2021/11/17 08:08:46;;;;;;;;;7.00;7.00;;;;;22.07;41.54;102183.66;4959494;28;46715;-66
2021/11/17 08:11:14;;;;;;;;;15.50;11.25;;;;;22.11;41.62;102192.16;4964015;28;45508;-67
2021/11/17 08:13:40;;;;;;;;;8.75;8.75;;;;;22.13;41.16;102203.44;4968868;28;45480;-66
2021/11/17 08:16:06;;;;;;;;;12.00;10.75;;;;;22.18;41.38;102202.03;4968939;28;45276;-67
2021/11/17 08:18:33;;;;;;;;;8.50;8.25;;;;;22.21;41.56;102202.69;4971459;28;47026;-67
2021/11/17 08:20:59;;;;;;;;;9.50;9.00;;;;;22.25;41.41;102206.75;4968800;28;45524;-67
2021/11/17 08:23:25;;;;;;;;;11.00;11.00;;;;;22.27;41.72;102199.47;4968391;28;45331;-67
2021/11/17 08:25:51;;;;;;;;;11.50;11.00;;;;;22.26;40.98;102211.03;4968479;28;45380;-67
2021/11/17 08:28:16;;;;;;;;;11.25;8.75;;;;;22.26;41.56;102224.31;4968452;28;46413;-66
2021/11/17 08:30:43;;;;;;;;;10.75;10.25;;;;;22.24;40.94;102207.72;4970948;28;45541;-66
2021/11/17 08:33:11;;;;;;;;;11.75;10.75;;;;;22.26;41.00;102216.34;4970478;28;45317;-66
2021/11/17 08:35:37;;;;;;;;;9.00;9.00;;;;;22.23;41.48;102211.34;4968906;28;45565;-67
2021/11/17 08:38:05;;;;;;;;;10.00;10.00;;;;;22.23;41.59;102220.13;4968207;28;46386;-66
2021/11/17 08:40:34;;;;;;;;;9.75;9.25;;;;;22.24;41.41;102232.41;4968096;28;45266;-67
2021/11/17 08:43:00;;;;;;;;;8.50;8.50;;;;;22.23;41.64;102224.59;4972991;28;45212;-67
2021/11/17 08:45:26;;;;;;;;;11.00;10.75;;;;;22.23;41.02;102233.38;4973815;28;45278;-66
2021/11/17 08:47:53;;;;;;;;;9.75;9.75;;;;;22.22;41.11;102230.88;4972549;28;45513;-67
2021/11/17 08:50:22;;;;;;;;;11.50;10.50;;;;;22.21;41.09;102230.06;4970789;28;46166;-66
2021/11/17 08:52:50;;;;;;;;;11.00;11.00;;;;;22.24;41.08;102228.91;4972287;28;45495;-67
2021/11/17 08:55:15;;;;;;;;;11.00;10.00;;;;;22.18;41.06;102222.38;4972227;28;45455;-67
2021/11/17 08:57:42;;;;;;;;;10.50;8.25;;;;;22.22;41.23;102234.38;4970875;28;46046;-67
2021/11/17 09:00:11;;;;;;;;;11.25;10.50;;;;;22.24;41.56;102240.38;4973229;28;45470;-67
2021/11/17 09:02:41;;;;;;;;;8.75;8.75;;;;;22.21;41.25;102237.16;4971628;28;45372;-66
2021/11/17 09:05:13;;;;;;;;;10.00;10.00;;;;;22.25;41.13;102249.16;4971921;28;45547;-66
2021/11/17 09:07:40;;;;;;;;;9.50;9.00;;;;;22.24;41.07;102250.97;4972014;28;47216;-67
2021/11/17 09:10:07;;;;;;;;;12.75;10.00;;;;;22.24;41.27;102247.47;4971921;28;45518;-67
2021/11/17 09:12:32;;;;;;;;;11.25;9.25;;;;;22.11;41.33;102229.25;4972058;28;45367;-66
2021/11/17 09:14:58;;;;;;;;;12.25;11.25;;;;;22.21;41.17;102251.25;4973721;28;45494;-66
2021/11/17 09:17:23;;;;;;;;;13.50;10.00;;;;;22.25;41.64;102259.75;4971866;28;46664;-67
2021/11/17 09:19:48;;;;;;;;;10.75;9.50;;;;;22.24;41.02;102256.28;4971715;28;45272;-67
2021/11/17 09:22:14;;;;;;;;;9.25;9.25;;;;;22.23;41.53;102254.59;4971773;28;45471;-67
2021/11/17 09:24:39;;;;;;;;;10.00;9.00;;;;;22.19;41.03;102247.94;4972043;28;45344;-67
2021/11/17 09:27:05;;;;;;;;;12.00;9.25;;;;;22.23;41.30;102257.25;4973869;28;46386;-67
2021/11/17 09:29:31;;;;;;;;;12.75;10.00;;;;;22.21;41.30;102258.38;4969830;28;45485;-67
2021/11/17 09:31:57;;;;;;;;;11.75;10.00;;;;;22.18;41.07;102256.84;4971909;28;45318;-67
2021/11/17 09:34:22;;;;;;;;;8.50;8.50;;;;;22.22;41.36;102263.53;4971896;28;45537;-67
2021/11/17 09:36:48;;;;;;;;;11.75;9.50;;;;;22.21;41.68;102250.41;4970240;28;45419;-67
2021/11/17 09:39:14;;;;;;;;;10.75;10.25;;;;;22.18;41.28;102249.72;4972869;28;45375;-67
2021/11/17 09:41:43;;;;;;;;;8.75;7.75;;;;;22.23;41.67;102256.41;4971865;28;45488;-66
2021/11/17 09:44:16;;;;;;;;;7.75;7.75;;;;;22.22;41.17;102257.41;4971212;28;45549;-67
2021/11/17 09:46:43;;;;;;;;;9.50;8.00;;;;;22.21;41.09;102258.38;4971399;28;47309;-66
2021/11/17 09:49:47;;;;;;;;;10.75;10.75;;;;;22.21;41.24;102261.03;4970340;28;45494;-67
2021/11/17 09:52:21;;;;;;;;;13.25;10.00;;;;;22.18;41.67;102267.44;4969881;28;66047;-67
2021/11/17 09:55:15;;;;;;;;;7.00;7.00;;;;;22.20;41.53;102273.44;4971705;28;45467;-67
2021/11/17 09:57:49;;;;;;;;;9.50;9.50;;;;;22.20;41.69;102269.97;4952198;28;46022;-67
2021/11/17 10:00:20;;;;;;;;;10.75;8.50;;;;;22.20;41.90;102267.31;4971027;28;45307;-67
2021/11/17 10:03:07;;;;;;;;;9.75;9.75;;;;;22.18;41.44;102265.66;4971065;28;45406;-66
2021/11/17 10:06:15;;;;;;;;;10.75;10.75;;;;;22.16;41.50;102269.41;4971786;28;45618;-67
2021/11/17 10:08:45;;;;;;;;;8.50;7.25;;;;;22.17;41.59;102271.91;4968842;28;45451;-67
2021/11/17 10:14:24;;;;;;;;;9.00;7.00;;;;;22.22;41.40;102279.44;4968518;28;45343;-67
2021/11/17 10:16:51;;;;;;;;;8.50;7.25;;;;;22.21;41.29;102277.78;4965560;28;45688;-67
2021/11/17 10:19:26;;;;;;;;;7.25;7.25;;;;;22.22;41.57;102283.91;4966786;28;46164;-67
2021/11/17 10:22:08;;;;;;;;;7.50;7.25;;;;;22.22;41.44;102274.16;4969186;28;45791;-67
2021/11/17 10:25:08;;;;;;;;;8.25;8.25;;;;;22.19;41.60;102274.44;4955525;28;45373;-66
2021/11/17 10:27:34;;;;;;;;;8.50;7.75;;;;;22.23;41.66;102281.09;4968999;28;45369;-66
2021/11/17 10:30:09;;;;;;;;;7.75;7.75;;;;;22.23;41.63;102281.09;4968674;28;47224;-67
2021/11/17 10:32:47;;;;;;;;;8.25;6.75;;;;;22.26;41.57;102295.88;4966262;28;45455;-67
2021/11/17 10:35:24;;;;;;;;;7.75;7.75;;;;;22.26;41.23;102293.22;4966629;27;45532;-66
2021/11/17 10:38:20;;;;;;;;;9.75;7.00;;;;;22.23;41.72;102286.41;4966724;28;45538;-67
2021/11/17 10:41:02;;;;;;;;;8.25;6.00;;;;;22.27;41.54;102290.44;4966491;28;45569;-67
2021/11/17 10:43:35;;;;;;;;;8.25;8.00;;;;;22.28;41.16;102291.25;4966311;28;45356;-67
2021/11/17 10:46:11;;;;;;;;;10.75;8.00;;;;;22.27;41.67;102293.09;4966179;28;45599;-67
2021/11/17 10:48:51;;;;;;;;;8.50;7.50;;;;;22.28;41.64;102291.25;4955804;28;45465;-67
2021/11/17 10:51:32;;;;;;;;;7.00;7.00;;;;;22.28;41.59;102294.75;4969330;28;46192;-67
2021/11/17 10:54:01;;;;;;;;;7.25;7.00;;;;;22.29;41.09;102292.94;4987424;28;45395;-67
2021/11/17 10:56:29;;;;;;;;;9.25;8.25;;;;;22.31;41.27;102300.75;4970745;28;45316;-67
2021/11/17 10:58:57;;;;;;;;;7.75;7.75;;;;;22.32;41.06;102299.78;4970734;28;45316;-66
2021/11/17 11:01:39;;;;;;;;;7.00;7.00;;;;;22.31;41.48;102306.88;4970459;28;45445;-67
2021/11/17 11:04:16;;;;;;;;;9.25;7.25;;;;;22.32;41.02;102303.25;4970574;28;45411;-67
2021/11/17 11:06:46;;;;;;;;;8.00;7.00;;;;;22.33;41.38;102304.91;4956059;28;45810;-67
2021/11/17 11:09:21;;;;;;;;;9.25;8.75;;;;;22.33;41.43;102301.44;4971682;28;45490;-67
2021/11/17 11:11:51;;;;;;;;;5.50;5.50;;;;;22.33;41.49;102304.09;4972597;28;47241;-67
2021/11/17 11:14:20;;;;;;;;;8.25;8.25;;;;;22.31;41.00;102292.78;4972974;28;45461;-67
2021/11/17 11:16:53;;;;;;;;;7.25;7.25;;;;;22.29;41.55;102292.94;4973147;28;45550;-66
2021/11/17 11:19:21;;;;;;;;;9.00;7.25;;;;;22.31;41.19;102292.78;4973158;28;45517;-66
2021/11/17 11:21:47;;;;;;;;;9.00;9.00;;;;;22.29;41.31;102296.44;4972812;28;45370;-66
2021/11/17 11:24:40;;;;;;;;;5.50;5.50;;;;;22.30;41.27;102302.56;4974128;28;45367;-66
2021/11/17 11:27:05;;;;;;;;;6.25;6.25;;;;;22.30;41.19;102297.28;4971830;28;45586;-66
2021/11/17 11:29:36;;;;;;;;;6.00;6.00;;;;;22.27;41.16;102294.91;4973311;28;45438;-66
2021/11/17 11:32:15;;;;;;;;;6.00;6.00;;;;;22.31;41.11;102300.75;4972946;28;46776;-66
2021/11/17 11:34:45;;;;;;;;;8.00;7.00;;;;;22.31;41.71;102295.44;4971876;28;45407;-66
2021/11/17 11:37:22;;;;;;;;;9.00;7.00;;;;;22.30;41.53;102289.31;4973007;28;45364;-66
2021/11/17 11:39:50;;;;;;;;;8.00;6.25;;;;;22.30;41.29;102284.03;4973086;28;45544;-66
2021/11/17 11:42:24;;;;;;;;;6.75;6.75;;;;;22.32;41.65;102292.66;4973723;28;46378;-66
2021/11/17 11:45:21;;;;;;;;;6.75;6.25;;;;;22.24;41.14;102274.84;4973572;28;45475;-66
2021/11/17 11:47:50;;;;;;;;;7.00;7.00;;;;;22.31;41.19;102284.81;4973136;28;45397;-67
2021/11/17 11:50:31;;;;;;;;;6.50;6.50;;;;;22.32;41.63;102289.16;4969580;28;45750;-65
2021/11/17 11:53:06;;;;;;;;;7.75;7.25;;;;;22.31;41.66;102298.09;4967739;28;45597;-67
2021/11/17 11:55:50;;;;;;;;;6.00;6.00;;;;;22.29;41.77;102299.09;4958437;28;45921;-66
2021/11/17 11:58:21;;;;;;;;;7.00;7.00;;;;;22.28;41.48;102294.75;4969325;28;45491;-66
2021/11/17 12:00:56;;;;;;;;;7.50;6.50;;;;;22.22;41.25;102289.22;4972054;28;45510;-68
2021/11/17 12:03:25;;;;;;;;;7.75;6.00;;;;;22.29;41.20;102304.38;4971887;28;47204;-66
2021/11/17 12:06:20;;;;;;;;;5.00;5.00;;;;;22.29;41.73;102300.91;4969337;28;45490;-66
2021/11/17 12:08:51;;;;;;;;;6.00;6.00;;;;;22.28;41.21;102293.91;4970453;28;45377;-66
2021/11/17 12:11:21;;;;;;;;;6.00;6.00;;;;;22.23;41.58;102280.25;4971558;28;45505;-66
2021/11/17 12:13:58;;;;;;;;;7.50;7.50;;;;;22.28;41.73;102294.75;4966955;28;46014;-66
2021/11/17 12:16:48;;;;;;;;;5.25;5.25;;;;;22.28;41.37;102291.25;4968590;28;45487;-66
2021/11/17 12:19:30;;;;;;;;;6.75;6.75;;;;;22.28;41.52;102292.09;4953140;28;45344;-66
2021/11/17 12:22:00;;;;;;;;;4.50;4.50;;;;;22.28;41.54;102292.09;4970172;28;46004;-66
2021/11/17 12:24:31;;;;;;;;;6.00;6.00;;;;;22.29;41.22;102285.00;4970895;28;46016;-66
2021/11/17 12:27:01;;;;;;;;;6.75;5.50;;;;;22.25;41.16;102286.28;4970128;28;45332;-66
2021/11/17 12:29:32;;;;;;;;;6.25;6.25;;;;;22.28;41.27;102291.25;4968377;28;46055;-66
2021/11/17 12:32:03;;;;;;;;;7.00;6.00;;;;;22.31;41.73;102298.94;4972473;28;45548;-66
2021/11/17 12:34:48;;;;;;;;;6.25;4.50;;;;;22.31;41.66;102300.75;4973521;28;47361;-66
2021/11/17 12:37:33;;;;;;;;;7.25;6.00;;;;;22.33;41.58;102309.41;4972237;28;45478;-66
2021/11/17 12:40:10;;;;;;;;;5.50;5.50;;;;;22.33;41.52;102312.88;4972296;28;45507;-66
2021/11/17 12:42:39;;;;;;;;;6.75;5.50;;;;;22.33;41.30;102315.53;4955301;28;45443;-66
2021/11/17 12:45:40;;;;;;;;;5.75;5.75;;;;;22.34;41.71;102309.25;4970518;28;46775;-66
2021/11/17 12:48:19;;;;;;;;;7.00;7.00;;;;;22.33;41.26;102310.22;4974311;28;45209;-66
2021/11/17 12:51:09;;;;;;;;;4.25;4.25;;;;;22.33;41.38;102307.56;4969574;28;45522;-66
2021/11/17 12:53:46;;;;;;;;;4.50;4.50;;;;;22.33;41.73;102306.75;4971308;28;45319;-66
2021/11/17 12:56:29;;;;;;;;;5.25;5.25;;;;;22.32;41.48;102302.41;4971974;28;45608;-66
2021/11/17 12:58:57;;;;;;;;;6.50;5.00;;;;;22.33;41.67;102304.09;4971981;28;45316;-66
2021/11/17 13:01:29;;;;;;;;;6.00;4.50;;;;;22.33;41.56;102302.25;4971728;28;45482;-66
2021/11/17 13:04:26;;;;;;;;;6.00;5.00;;;;;22.34;41.67;102303.94;4972225;28;45514;-67
2021/11/17 13:06:56;;;;;;;;;7.50;6.00;;;;;22.32;41.68;102308.56;4955328;28;47094;-66
2021/11/17 13:09:30;;;;;;;;;4.75;4.75;;;;;22.33;42.03;102314.72;4970902;28;45398;-66
2021/11/17 13:12:20;;;;;;;;;5.25;5.25;;;;;22.32;41.49;102313.88;4973873;28;45387;-67
2021/11/17 13:14:45;;;;;;;;;6.25;6.25;;;;;22.32;41.56;102311.22;4968545;28;45588;-66
2021/11/17 13:17:11;;;;;;;;;5.00;5.00;;;;;22.33;41.79;102314.72;4971744;28;45380;-66
2021/11/17 13:19:40;;;;;;;;;5.25;5.00;;;;;22.20;41.97;102296.47;4971973;28;45481;-67
2021/11/17 13:22:24;;;;;;;;;6.50;5.50;;;;;22.32;41.41;102316.53;4969858;28;45444;-66
2021/11/17 13:24:53;;;;;;;;;8.50;6.00;;;;;22.32;41.84;102310.38;4958702;28;45455;-67
2021/11/17 13:27:21;;;;;;;;;6.00;5.75;;;;;22.32;41.67;102305.91;4972273;28;45529;-67
2021/11/17 13:29:52;;;;;;;;;4.75;4.75;;;;;22.31;41.74;102306.88;4971121;28;45538;-66
2021/11/17 13:32:20;;;;;;;;;4.25;4.25;;;;;22.31;41.54;102306.88;4967675;28;45511;-66
2021/11/17 13:34:52;;;;;;;;;9.00;5.00;;;;;22.32;42.03;102311.22;4965281;28;45519;-67
2021/11/17 13:37:20;;;;;;;;;6.50;4.75;;;;;22.31;41.82;102317.50;4966528;28;46367;-67
2021/11/17 13:39:50;;;;;;;;;5.00;5.00;;;;;22.31;41.92;102322.78;4970921;28;45444;-66
2021/11/17 13:42:15;;;;;;;;;5.75;5.00;;;;;22.31;41.43;102320.13;4970364;28;45370;-66
2021/11/17 13:44:41;;;;;;;;;8.75;4.00;;;;;22.31;41.83;102314.84;4968422;28;45513;-66
2021/11/17 13:47:10;;;;;;;;;6.25;5.00;;;;;22.31;41.18;102312.19;4967601;28;45479;-66
2021/11/17 13:49:39;;;;;;;;;3.00;3.00;;;;;22.34;41.75;102313.72;4967531;28;45419;-66
2021/11/17 13:52:05;;;;;;;;;6.25;6.25;;;;;22.33;41.73;102309.41;4970543;28;45432;-66
2021/11/17 13:54:31;;;;;;;;;4.50;4.00;;;;;22.34;41.77;102319.00;4955410;28;45499;-66
2021/11/17 13:56:56;;;;;;;;;5.25;5.25;;;;;22.34;41.38;102313.72;4968383;28;45477;-66
2021/11/17 13:59:22;;;;;;;;;5.50;4.25;;;;;22.33;41.78;102322.66;4967613;28;45333;-67
2021/11/17 14:01:48;;;;;;;;;5.00;5.00;;;;;22.36;41.85;102325.00;4965755;28;45521;-67
2021/11/17 14:04:13;;;;;;;;;4.25;4.00;;;;;22.36;41.74;102317.03;4967178;28;45562;-67
2021/11/17 14:06:42;;;;;;;;;3.75;3.75;;;;;22.35;41.20;102324.16;4971110;28;45435;-67
2021/11/17 14:09:08;;;;;;;;;5.75;4.25;;;;;22.35;41.33;102321.50;4969767;28;45377;-67
2021/11/17 14:11:34;;;;;;;;;5.00;4.25;;;;;22.31;41.71;102314.84;4966143;28;45365;-66
2021/11/17 14:14:00;;;;;;;;;4.75;3.50;;;;;22.34;41.58;102322.50;4966474;28;45487;-67
2021/11/17 14:16:27;;;;;;;;;4.00;4.00;;;;;22.35;41.82;102328.66;4971082;28;47320;-66
2021/11/17 14:18:53;;;;;;;;;4.75;3.75;;;;;22.34;41.59;102316.38;4971422;28;45545;-66
2021/11/17 14:21:20;;;;;;;;;4.50;4.00;;;;;22.34;41.65;102324.31;4971243;28;45234;-66